Time;durP1;ratioP1;P1;durP2;ratioP2;P2;SDS_P1;SDS_P2;PMS_P1;PMS_P2;Temp;Humidity;BMP_temperature;BMP_pressure;BME280_temperature;BME280_humidity;BME280_pressure;Samples;Min_cycle;Max_cycle;Signal;HPM_P1;HPM_P2
2022/09/28 00:01:16;;;;;;;6.20;5.60;;;22.20;99.90;;;;;;6272575;27;88299;-67
2022/09/28 00:04:19;;;;;;;6.60;5.90;;;22.20;99.90;;;;;;6272160;27;89077;-67
2022/09/28 00:07:21;;;;;;;6.07;5.47;;;22.30;99.90;;;;;;6283850;27;89498;-67
2022/09/28 00:10:23;;;;;;;6.15;5.55;;;22.20;99.90;;;;;;6275076;27;89202;-68
2022/09/28 00:13:27;;;;;;;6.22;5.63;;;22.20;99.90;;;;;;6279645;27;89128;-67
2022/09/28 00:16:32;;;;;;;6.30;5.60;;;22.20;99.90;;;;;;6282299;27;90651;-67
2022/09/28 00:19:34;;;;;;;6.25;5.65;;;22.20;99.90;;;;;;6273161;27;89091;-67
2022/09/28 00:22:36;;;;;;;6.03;5.43;;;22.20;99.90;;;;;;6282381;27;88297;-67
2022/09/28 00:25:38;;;;;;;5.90;5.30;;;22.20;99.90;;;;;;6283259;27;89015;-68
2022/09/28 00:28:41;;;;;;;5.97;5.32;;;22.20;99.90;;;;;;6275763;27;89911;-67
2022/09/28 00:31:43;;;;;;;5.45;4.90;;;22.20;99.90;;;;;;6282181;27;88325;-67
2022/09/28 00:34:45;;;;;;;5.70;5.10;;;22.20;99.90;;;;;;6276192;27;89438;-67
2022/09/28 00:37:49;;;;;;;5.95;5.35;;;22.20;99.90;;;;;;6280505;27;89351;-67
2022/09/28 00:40:51;;;;;;;5.85;5.28;;;22.20;99.90;;;;;;6277882;27;90318;-67
2022/09/28 00:44:45;;;;;;;5.82;5.22;;;22.20;99.90;;;;;;6268926;27;89128;-67
2022/09/28 00:47:52;;;;;;;5.85;5.25;;;22.20;99.90;;;;;;6274524;27;89308;-67
2022/09/28 00:50:54;;;;;;;5.45;4.95;;;22.20;99.90;;;;;;6280894;27;89220;-67
2022/09/28 00:53:56;;;;;;;5.10;4.60;;;22.10;99.90;;;;;;6280413;27;89040;-67
2022/09/28 00:57:00;;;;;;;5.60;5.10;;;22.10;99.90;;;;;;6272030;27;89135;-67
2022/09/28 01:00:05;;;;;;;5.78;5.20;;;22.10;99.90;;;;;;6276859;27;89003;-67
2022/09/28 01:03:08;;;;;;;5.15;4.65;;;22.10;99.90;;;;;;6269611;27;87456;-67
2022/09/28 01:06:15;;;;;;;5.63;5.13;;;22.10;99.90;;;;;;6267846;27;89213;-67
2022/09/28 01:09:19;;;;;;;5.38;4.88;;;22.10;99.90;;;;;;6277262;27;88976;-67
2022/09/28 01:12:21;;;;;;;6.07;5.47;;;22.20;99.90;;;;;;6277066;27;90011;-68
2022/09/28 01:15:28;;;;;;;5.90;5.30;;;22.10;99.90;;;;;;6270673;27;87982;-67
2022/09/28 01:18:40;;;;;;;6.00;5.40;;;22.10;99.90;;;;;;6273472;27;90961;-67
2022/09/28 01:21:50;;;;;;;5.85;5.35;;;22.10;99.90;;;;;;6272489;27;89126;-67
2022/09/28 01:24:59;;;;;;;5.90;5.30;;;22.10;99.90;;;;;;6270635;27;89420;-67
2022/09/28 01:28:06;;;;;;;6.05;5.45;;;22.10;99.90;;;;;;6277408;27;89086;-67
2022/09/28 01:31:12;;;;;;;6.20;5.60;;;22.10;99.90;;;;;;6264846;27;89221;-67
2022/09/28 01:34:18;;;;;;;5.95;5.35;;;22.10;99.90;;;;;;6271857;27;87313;-67
2022/09/28 01:37:23;;;;;;;6.07;5.47;;;22.10;99.90;;;;;;6279674;27;88585;-67
2022/09/28 01:40:27;;;;;;;5.90;5.30;;;22.10;99.90;;;;;;6271087;27;89526;-67
2022/09/28 01:43:35;;;;;;;6.57;5.88;;;22.10;99.90;;;;;;6270511;27;90097;-67
2022/09/28 01:46:43;;;;;;;6.00;5.40;;;22.10;99.90;;;;;;6270509;27;88056;-67
2022/09/28 01:49:49;;;;;;;6.55;5.95;;;22.00;99.90;;;;;;6267429;27;88869;-67
2022/09/28 01:52:55;;;;;;;6.50;5.88;;;22.10;99.90;;;;;;6276827;27;89158;-67
2022/09/28 01:56:01;;;;;;;6.10;5.50;;;22.10;99.90;;;;;;6267276;27;89027;-67
2022/09/28 01:59:08;;;;;;;6.82;6.13;;;22.00;99.90;;;;;;6269881;27;89077;-67
2022/09/28 02:02:14;;;;;;;6.68;6.03;;;22.00;99.90;;;;;;6270551;27;89056;-67
2022/09/28 02:05:19;;;;;;;6.35;5.75;;;22.00;99.90;;;;;;6283344;27;88450;-67
2022/09/28 02:08:27;;;;;;;7.28;6.57;;;22.00;99.90;;;;;;6271319;27;88993;-68
2022/09/28 02:11:29;;;;;;;6.88;6.18;;;22.00;99.90;;;;;;6274388;27;88991;-67
2022/09/28 02:14:36;;;;;;;6.20;5.60;;;22.00;99.90;;;;;;6271218;27;90590;-67
2022/09/28 02:17:38;;;;;;;7.13;6.40;;;22.00;99.90;;;;;;6266686;27;89460;-67
2022/09/28 02:20:46;;;;;;;6.57;5.90;;;22.00;99.90;;;;;;6274135;27;89310;-68
2022/09/28 02:23:55;;;;;;;6.70;6.03;;;22.00;99.90;;;;;;6269066;27;89942;-67
2022/09/28 02:27:00;;;;;;;6.95;6.28;;;22.00;99.90;;;;;;6278249;27;89079;-67
2022/09/28 02:30:05;;;;;;;6.78;6.18;;;22.00;99.90;;;;;;6272371;27;88952;-67
2022/09/28 02:33:12;;;;;;;6.88;6.22;;;22.00;99.90;;;;;;6278840;27;89216;-67
2022/09/28 02:36:15;;;;;;;7.15;6.45;;;22.00;99.90;;;;;;6284598;27;88206;-67
2022/09/28 02:39:17;;;;;;;7.20;6.50;;;22.00;99.90;;;;;;6264172;27;89067;-67
2022/09/28 02:42:24;;;;;;;7.20;6.50;;;22.00;99.90;;;;;;6278636;27;91425;-68
2022/09/28 02:45:45;;;;;;;6.80;6.20;;;22.00;99.90;;;;;;6278249;27;88896;-67
2022/09/28 02:49:05;;;;;;;7.25;6.55;;;22.00;99.90;;;;;;6267779;27;89034;-67
2022/09/28 02:52:25;;;;;;;7.78;6.40;;;21.90;99.90;;;;;;6282714;27;89023;-67
2022/09/28 02:55:38;;;;;;;7.05;6.45;;;21.90;99.90;;;;;;6262561;27;87941;-67
2022/09/28 02:58:50;;;;;;;7.50;6.80;;;22.00;99.90;;;;;;6267173;27;89048;-67
2022/09/28 03:02:01;;;;;;;7.18;6.47;;;22.00;99.90;;;;;;6280861;27;88529;-67
2022/09/28 03:05:14;;;;;;;7.10;6.40;;;22.00;99.90;;;;;;6284740;27;87968;-67
2022/09/28 03:08:23;;;;;;;7.43;6.65;;;22.00;99.90;;;;;;6269474;27;87207;-67
2022/09/28 03:11:29;;;;;;;7.15;6.45;;;21.90;99.90;;;;;;6276225;27;89095;-67
2022/09/28 03:14:31;;;;;;;7.03;6.38;;;22.00;99.90;;;;;;6270514;27;89148;-67
2022/09/28 03:17:34;;;;;;;7.30;6.60;;;21.90;99.90;;;;;;6281007;27;90021;-67
2022/09/28 03:20:37;;;;;;;7.72;7.03;;;22.00;99.90;;;;;;6280901;27;89363;-67
2022/09/28 03:23:39;;;;;;;7.70;7.00;;;21.90;99.90;;;;;;6276184;27;89020;-66
2022/09/28 03:26:41;;;;;;;7.63;6.82;;;21.90;99.90;;;;;;6277198;27;89049;-67
2022/09/28 03:29:43;;;;;;;7.80;7.03;;;21.90;99.90;;;;;;6279648;27;87976;-67
2022/09/28 03:32:47;;;;;;;7.45;6.75;;;21.90;99.90;;;;;;6281201;27;89123;-67
2022/09/28 03:35:50;;;;;;;7.70;7.00;;;21.90;99.90;;;;;;6280549;27;88983;-67
2022/09/28 03:38:53;;;;;;;7.65;6.93;;;22.00;99.90;;;;;;6281541;27;88285;-67
2022/09/28 03:41:55;;;;;;;9.45;7.03;;;22.00;99.90;;;;;;6276582;27;89055;-67
2022/09/28 03:44:57;;;;;;;7.50;6.80;;;22.00;99.90;;;;;;6282114;27;89153;-67
2022/09/28 03:48:01;;;;;;;7.35;6.47;;;22.00;99.90;;;;;;6260463;27;89958;-67
2022/09/28 03:51:05;;;;;;;7.43;6.72;;;22.00;99.90;;;;;;6268056;27;89052;-67
2022/09/28 03:54:07;;;;;;;8.23;7.43;;;22.10;99.90;;;;;;6265879;27;89205;-67
2022/09/28 03:57:09;;;;;;;7.80;7.00;;;22.10;99.90;;;;;;6281898;27;89556;-67
2022/09/28 04:00:13;;;;;;;7.00;6.30;;;22.10;99.90;;;;;;6274994;27;89901;-67
2022/09/28 04:03:16;;;;;;;7.25;6.55;;;22.10;99.90;;;;;;6281643;27;87910;-67
2022/09/28 04:06:18;;;;;;;7.30;6.60;;;22.10;99.90;;;;;;6283025;27;87941;-67
2022/09/28 04:09:20;;;;;;;7.07;6.38;;;22.20;99.90;;;;;;6276137;27;88427;-67
2022/09/28 04:12:22;;;;;;;7.93;6.60;;;22.20;99.90;;;;;;6275516;27;89073;-67
2022/09/28 04:15:24;;;;;;;7.10;6.40;;;22.20;99.90;;;;;;6262689;27;89099;-67
2022/09/28 04:18:28;;;;;;;7.30;6.60;;;22.20;99.90;;;;;;6275031;27;90467;-67
2022/09/28 04:21:30;;;;;;;7.43;6.72;;;22.30;99.90;;;;;;6284490;27;89121;-67
2022/09/28 04:24:32;;;;;;;6.65;6.05;;;22.30;99.90;;;;;;6276367;27;89095;-67
2022/09/28 04:30:53;;;;;;;7.63;6.93;;;22.30;99.90;;;;;;6277447;27;87129;-67
2022/09/28 04:33:58;;;;;;;6.97;6.28;;;22.30;99.90;;;;;;6276668;27;89513;-67
2022/09/28 04:37:00;;;;;;;7.35;6.65;;;22.40;99.90;;;;;;6267056;27;89088;-67
2022/09/28 04:40:02;;;;;;;7.30;6.60;;;22.40;99.90;;;;;;6275889;27;90056;-67
2022/09/28 04:43:04;;;;;;;7.07;6.38;;;22.40;99.90;;;;;;6271135;27;90737;-67
2022/09/28 04:46:06;;;;;;;7.03;6.32;;;22.40;99.90;;;;;;6267826;27;89493;-67
2022/09/28 04:49:10;;;;;;;7.80;7.00;;;22.40;99.90;;;;;;6280263;27;89050;-67
2022/09/28 04:52:12;;;;;;;7.40;6.70;;;22.40;99.90;;;;;;6283008;27;89107;-67
2022/09/28 04:55:16;;;;;;;7.20;6.50;;;22.40;99.90;;;;;;6275925;27;89022;-67
2022/09/28 04:58:17;;;;;;;7.07;6.38;;;22.50;99.90;;;;;;6282576;27;89104;-67
2022/09/28 05:01:22;;;;;;;7.40;6.70;;;22.50;99.90;;;;;;6274912;27;89301;-67
2022/09/28 05:04:26;;;;;;;7.20;6.50;;;22.50;99.90;;;;;;6274062;27;89125;-67
2022/09/28 05:07:30;;;;;;;8.15;6.80;;;22.50;99.90;;;;;;6275752;27;87918;-67
2022/09/28 05:10:31;;;;;;;7.07;6.38;;;22.50;99.90;;;;;;6265903;27;88308;-67
2022/09/28 05:13:40;;;;;;;6.97;6.32;;;22.50;99.90;;;;;;6279233;27;90078;-67
2022/09/28 05:16:42;;;;;;;6.90;6.25;;;22.50;99.90;;;;;;6278145;27;88275;-67
2022/09/28 05:19:45;;;;;;;7.15;6.50;;;22.50;99.90;;;;;;6282761;27;90017;-67
2022/09/28 05:22:47;;;;;;;6.97;6.38;;;22.50;99.90;;;;;;6280188;27;89044;-67
2022/09/28 05:25:49;;;;;;;7.30;6.60;;;22.50;99.90;;;;;;6280266;27;89056;-67
2022/09/28 05:28:51;;;;;;;6.95;6.35;;;22.60;99.90;;;;;;6273862;27;88813;-67
2022/09/28 05:31:53;;;;;;;7.03;6.38;;;22.60;99.90;;;;;;6265766;27;89041;-67
2022/09/28 05:34:59;;;;;;;7.10;6.43;;;22.60;99.90;;;;;;6279693;27;89131;-67
2022/09/28 05:38:05;;;;;;;7.30;6.45;;;22.60;99.90;;;;;;6280409;27;88801;-67
2022/09/28 05:41:07;;;;;;;7.20;6.50;;;22.60;99.90;;;;;;6273693;27;88328;-67
2022/09/28 05:44:09;;;;;;;7.15;6.45;;;22.60;99.90;;;;;;6276897;27;89089;-68
2022/09/28 05:47:11;;;;;;;6.82;6.13;;;22.60;99.90;;;;;;6278063;27;89051;-67
2022/09/28 05:50:15;;;;;;;7.30;6.60;;;22.60;99.90;;;;;;6279834;27;90038;-67
2022/09/28 05:53:17;;;;;;;6.47;5.88;;;22.60;99.90;;;;;;6278266;27;89339;-67
2022/09/28 05:56:19;;;;;;;8.43;7.43;;;22.60;99.90;;;;;;6272917;27;87983;-66
2022/09/28 05:59:21;;;;;;;8.80;7.22;;;22.60;99.90;;;;;;6278288;27;89105;-67
2022/09/28 06:02:23;;;;;;;8.13;6.40;;;22.60;99.90;;;;;;6278127;27;89412;-66
2022/09/28 06:05:27;;;;;;;6.80;6.10;;;22.60;99.90;;;;;;6281942;27;87966;-66
2022/09/28 06:08:30;;;;;;;8.70;6.18;;;22.60;99.90;;;;;;6282251;27;89092;-66
2022/09/28 06:11:32;;;;;;;10.13;7.90;;;22.70;99.90;;;;;;6286392;27;88005;-66
2022/09/28 06:14:34;;;;;;;8.30;7.50;;;22.70;99.90;;;;;;6279130;27;89088;-66
2022/09/28 06:17:36;;;;;;;8.98;7.80;;;22.70;99.90;;;;;;6279450;27;89157;-66
2022/09/28 06:20:40;;;;;;;8.43;7.18;;;22.70;99.90;;;;;;6282905;27;90007;-66
2022/09/28 06:23:43;;;;;;;8.68;7.63;;;22.80;99.90;;;;;;6280942;27;89046;-66
2022/09/28 06:26:44;;;;;;;8.50;7.60;;;22.80;99.90;;;;;;6279797;27;89191;-67
2022/09/28 06:29:46;;;;;;;8.15;7.45;;;22.80;99.90;;;;;;6283798;27;88064;-66
2022/09/28 06:32:52;;;;;;;8.55;7.68;;;22.90;99.90;;;;;;6276821;27;89087;-67
2022/09/28 06:35:55;;;;;;;8.20;7.40;;;22.90;99.90;;;;;;6284305;27;89242;-66
2022/09/28 06:38:58;;;;;;;8.02;7.30;;;23.00;99.90;;;;;;6272908;27;88992;-67
2022/09/28 06:42:03;;;;;;;7.88;7.07;;;22.90;99.90;;;;;;6281741;27;88416;-66
2022/09/28 06:45:06;;;;;;;7.63;6.90;;;23.00;99.90;;;;;;6278362;27;89062;-66
2022/09/28 06:48:09;;;;;;;9.10;7.60;;;23.00;99.90;;;;;;6279467;27;89029;-67
2022/09/28 06:51:12;;;;;;;7.78;6.88;;;23.00;99.90;;;;;;6280337;27;90009;-67
2022/09/28 06:54:14;;;;;;;8.68;6.97;;;23.00;99.90;;;;;;6280375;27;89426;-67
2022/09/28 06:57:16;;;;;;;7.50;6.80;;;22.90;99.90;;;;;;6278589;27;89387;-67
2022/09/28 07:00:19;;;;;;;7.70;6.90;;;23.00;99.90;;;;;;6278559;27;90726;-67
2022/09/28 07:03:22;;;;;;;8.15;7.00;;;23.00;99.90;;;;;;6274939;27;89097;-67
2022/09/28 07:06:25;;;;;;;7.72;6.93;;;22.90;99.90;;;;;;6279310;27;89055;-67
2022/09/28 07:09:28;;;;;;;6.95;6.28;;;23.00;99.90;;;;;;6281536;27;89511;-66
2022/09/28 07:12:31;;;;;;;8.07;6.70;;;22.90;99.90;;;;;;6279774;27;88447;-67
2022/09/28 07:15:33;;;;;;;8.20;7.00;;;22.90;99.90;;;;;;6279989;27;88831;-66
2022/09/28 07:18:35;;;;;;;7.78;6.93;;;22.90;99.90;;;;;;6278740;27;89022;-66
2022/09/28 07:21:38;;;;;;;6.88;6.13;;;23.00;99.90;;;;;;6279305;27;89208;-67
2022/09/28 07:24:42;;;;;;;8.73;6.70;;;22.90;99.90;;;;;;6277923;27;89131;-66
2022/09/28 07:27:45;;;;;;;9.02;6.07;;;23.00;99.90;;;;;;6275509;27;89532;-66
2022/09/28 07:30:47;;;;;;;7.28;6.57;;;23.00;99.90;;;;;;6276968;27;89521;-66
2022/09/28 07:33:52;;;;;;;9.32;6.63;;;23.00;99.90;;;;;;6277977;27;89052;-66
2022/09/28 07:36:58;;;;;;;6.72;6.13;;;22.90;99.90;;;;;;6277725;27;89064;-67
2022/09/28 07:43:20;;;;;;;7.18;6.47;;;23.00;99.90;;;;;;6280978;27;90434;-67
2022/09/28 07:46:22;;;;;;;8.70;6.43;;;23.00;99.90;;;;;;6283839;27;89227;-66
2022/09/28 07:49:24;;;;;;;7.75;6.45;;;23.00;99.90;;;;;;6283514;27;87985;-66
2022/09/28 07:52:27;;;;;;;8.90;6.43;;;23.00;99.90;;;;;;6282340;27;90022;-66
2022/09/28 07:55:29;;;;;;;6.68;5.90;;;23.00;99.90;;;;;;6272077;27;88253;-66
2022/09/28 07:58:32;;;;;;;10.35;6.22;;;23.00;99.90;;;;;;6281738;27;88972;-66
2022/09/28 08:01:34;;;;;;;11.50;6.47;;;23.00;99.90;;;;;;6280920;27;89120;-66
2022/09/28 08:04:36;;;;;;;10.23;6.45;;;23.00;99.90;;;;;;6282979;27;89068;-66
2022/09/28 08:07:39;;;;;;;11.73;6.80;;;23.00;99.90;;;;;;6283170;27;89412;-66
2022/09/28 08:10:42;;;;;;;10.27;6.30;;;23.00;99.90;;;;;;6283032;27;89232;-66
2022/09/28 08:13:46;;;;;;;10.75;6.35;;;23.00;99.90;;;;;;6281749;27;88284;-66
2022/09/28 08:16:48;;;;;;;8.00;6.15;;;23.00;99.90;;;;;;6283074;27;89230;-66
2022/09/28 08:23:08;;;;;;;9.05;6.28;;;23.00;99.90;;;;;;6234595;27;88056;-67
2022/09/28 08:26:10;;;;;;;6.60;5.90;;;23.00;99.90;;;;;;6283442;27;89046;-67
2022/09/28 08:29:13;;;;;;;10.70;5.90;;;23.00;99.90;;;;;;6277608;27;89039;-66
2022/09/28 08:32:17;;;;;;;9.32;6.53;;;23.00;99.90;;;;;;6282526;27;89060;-66
2022/09/28 08:35:19;;;;;;;10.07;6.05;;;23.00;99.90;;;;;;6282531;27;89149;-66
2022/09/28 08:38:22;;;;;;;8.63;5.80;;;23.00;99.90;;;;;;6272183;27;90790;-66
2022/09/28 08:41:35;;;;;;;6.85;5.50;;;23.00;99.90;;;;;;6281123;27;89243;-66
2022/09/28 08:44:43;;;;;;;7.22;5.57;;;23.10;99.90;;;;;;6283000;27;88482;-66
2022/09/28 08:51:20;;;;;;;8.15;5.43;;;23.10;99.90;;;;;;6264256;27;88018;-67
2022/09/28 08:54:36;;;;;;;6.90;5.28;;;23.00;99.90;;;;;;6280052;27;89727;-66
2022/09/28 08:57:44;;;;;;;7.47;5.15;;;23.00;99.90;;;;;;6282349;27;87959;-66
2022/09/28 09:00:48;;;;;;;8.00;4.88;;;23.00;99.90;;;;;;6282319;27;89795;-67
2022/09/28 09:03:51;;;;;;;7.47;5.20;;;23.00;99.90;;;;;;6281532;27;89033;-66
2022/09/28 09:07:09;;;;;;;8.60;5.55;;;23.00;99.90;;;;;;6277726;27;89055;-66
2022/09/28 09:10:35;;;;;;;6.32;5.38;;;23.00;99.90;;;;;;6281769;27;89158;-66
2022/09/28 09:13:55;;;;;;;7.25;4.97;;;23.00;99.90;;;;;;6281647;27;89239;-66
2022/09/28 09:17:06;;;;;;;5.72;5.03;;;23.00;99.90;;;;;;6282763;27;88327;-66
2022/09/28 09:20:18;;;;;;;6.32;4.90;;;23.10;99.90;;;;;;6281696;27;89120;-67
2022/09/28 09:23:33;;;;;;;6.40;5.25;;;23.10;99.90;;;;;;6281438;27;89340;-67
2022/09/28 09:26:39;;;;;;;6.13;4.70;;;23.10;99.90;;;;;;6281560;27;90102;-66
2022/09/28 09:29:59;;;;;;;6.75;5.20;;;23.10;99.90;;;;;;6279703;27;89160;-67
2022/09/28 09:33:29;;;;;;;5.30;4.80;;;23.10;99.90;;;;;;6272962;27;88088;-67
2022/09/28 09:36:44;;;;;;;5.78;4.70;;;23.00;99.90;;;;;;6245470;27;89238;-66
2022/09/28 09:40:09;;;;;;;6.13;4.47;;;23.10;99.90;;;;;;6275809;27;87890;-67
2022/09/28 09:43:32;;;;;;;7.03;4.47;;;23.10;99.90;;;;;;6281652;27;89333;-66
2022/09/28 09:46:38;;;;;;;5.65;4.65;;;23.10;99.90;;;;;;6281800;27;89054;-66
2022/09/28 09:49:45;;;;;;;5.00;4.40;;;23.10;99.90;;;;;;6281898;27;88344;-67
2022/09/28 09:52:56;;;;;;;5.45;4.43;;;23.10;99.90;;;;;;6281519;27;89499;-67
2022/09/28 09:56:03;;;;;;;6.57;4.40;;;23.10;99.90;;;;;;6279514;27;89291;-66
2022/09/28 09:59:11;;;;;;;5.97;4.35;;;23.10;99.90;;;;;;6280057;27;90017;-67
2022/09/28 10:02:24;;;;;;;5.47;4.50;;;23.10;99.90;;;;;;6281348;27;89076;-66
2022/09/28 10:05:29;;;;;;;5.25;4.35;;;23.10;99.90;;;;;;6280258;27;89287;-67
2022/09/28 10:08:37;;;;;;;5.18;4.28;;;23.00;99.90;;;;;;6277398;27;88284;-67
2022/09/28 10:11:43;;;;;;;5.18;4.22;;;23.10;99.90;;;;;;6273364;27;89128;-67
2022/09/28 10:14:46;;;;;;;4.80;4.30;;;23.10;99.90;;;;;;6280717;27;88957;-67
2022/09/28 10:17:48;;;;;;;4.57;4.10;;;23.10;99.90;;;;;;6281286;27;89306;-67
2022/09/28 10:20:50;;;;;;;4.85;4.13;;;23.10;99.90;;;;;;6281736;27;88367;-67
2022/09/28 10:23:57;;;;;;;4.43;4.03;;;23.10;99.90;;;;;;6277501;27;89087;-66
2022/09/28 10:27:05;;;;;;;4.38;3.97;;;23.10;99.90;;;;;;6280592;27;89023;-67
2022/09/28 10:30:17;;;;;;;4.18;3.78;;;23.10;99.90;;;;;;6276730;27;90037;-66
2022/09/28 10:33:31;;;;;;;4.47;3.92;;;23.10;99.90;;;;;;6278693;27;88942;-67
2022/09/28 10:36:42;;;;;;;4.00;3.60;;;23.10;99.90;;;;;;6279883;27;89041;-66
2022/09/28 10:39:49;;;;;;;5.13;3.70;;;23.10;99.90;;;;;;6276824;27;89159;-66
2022/09/28 10:42:59;;;;;;;4.63;3.75;;;23.10;99.90;;;;;;6280114;27;89019;-66
2022/09/28 10:46:06;;;;;;;5.13;4.07;;;23.10;99.90;;;;;;6280310;27;88981;-66
2022/09/28 10:49:16;;;;;;;4.35;3.78;;;23.10;99.90;;;;;;6280419;27;89116;-66
2022/09/28 10:52:36;;;;;;;4.15;3.75;;;23.20;99.90;;;;;;6277360;27;88355;-66
2022/09/28 10:55:38;;;;;;;4.15;3.75;;;23.10;99.90;;;;;;6277338;27;87948;-66
2022/09/28 10:58:41;;;;;;;4.03;3.63;;;23.10;99.90;;;;;;6277287;27;89010;-66
2022/09/28 11:01:45;;;;;;;4.35;3.88;;;23.10;99.90;;;;;;6280007;27;89653;-66
2022/09/28 11:04:52;;;;;;;4.05;3.65;;;23.10;99.90;;;;;;6280671;27;89103;-66
2022/09/28 11:07:55;;;;;;;4.00;3.60;;;23.10;99.90;;;;;;6279769;27;89638;-66
2022/09/28 11:11:06;;;;;;;4.22;3.75;;;23.10;99.90;;;;;;6281319;27;88996;-66
2022/09/28 11:14:27;;;;;;;3.60;3.30;;;23.10;99.90;;;;;;6284416;27;89031;-66
2022/09/28 11:17:32;;;;;;;4.82;3.85;;;23.20;99.90;;;;;;6271084;27;88982;-66
2022/09/28 11:20:35;;;;;;;3.92;3.53;;;23.10;99.90;;;;;;6285476;27;89393;-66
2022/09/28 11:23:37;;;;;;;4.55;3.65;;;23.10;99.90;;;;;;6284858;27;88370;-66
2022/09/28 11:26:41;;;;;;;3.55;3.25;;;23.20;99.90;;;;;;6284442;27;87924;-66
2022/09/28 11:29:51;;;;;;;4.10;3.60;;;23.20;99.90;;;;;;6283847;27;89178;-66
2022/09/28 11:33:00;;;;;;;4.57;3.70;;;23.10;99.90;;;;;;6266717;27;90365;-66
2022/09/28 11:36:17;;;;;;;3.63;3.25;;;23.10;99.90;;;;;;6283296;27;87727;-66
2022/09/28 11:39:28;;;;;;;4.10;3.53;;;23.20;99.90;;;;;;6283467;27;88862;-66
2022/09/28 11:42:39;;;;;;;3.72;3.38;;;23.10;99.90;;;;;;6280060;27;89074;-66
2022/09/28 11:45:52;;;;;;;4.18;3.30;;;23.10;99.90;;;;;;6279611;27;89121;-66
2022/09/28 11:49:01;;;;;;;4.10;3.50;;;23.20;99.90;;;;;;6283193;27;89127;-66
2022/09/28 11:52:06;;;;;;;3.70;3.13;;;23.20;99.90;;;;;;6283632;27;89398;-66
2022/09/28 11:55:14;;;;;;;3.20;2.90;;;23.10;99.90;;;;;;6284383;27;88308;-66
2022/09/28 11:58:25;;;;;;;3.67;3.17;;;23.20;99.90;;;;;;6273903;27;89090;-66
2022/09/28 12:01:34;;;;;;;3.35;3.05;;;23.10;99.90;;;;;;6282674;27;89108;-66
2022/09/28 12:04:42;;;;;;;3.40;3.10;;;23.10;99.90;;;;;;6283219;27;89976;-66
2022/09/28 12:07:48;;;;;;;3.40;3.10;;;23.10;99.90;;;;;;6283676;27;89395;-66
2022/09/28 12:10:55;;;;;;;3.40;3.10;;;23.10;99.90;;;;;;6270464;27;89589;-66
2022/09/28 12:14:00;;;;;;;3.45;3.15;;;23.10;99.90;;;;;;6284073;27;89006;-66
2022/09/28 12:17:08;;;;;;;3.50;3.15;;;23.20;99.90;;;;;;6283614;27;89054;-66
2022/09/28 12:20:19;;;;;;;3.30;3.00;;;23.10;99.90;;;;;;6283337;27;89335;-66
2022/09/28 12:23:29;;;;;;;3.38;3.03;;;23.10;99.90;;;;;;6281696;27;88948;-66
2022/09/28 12:26:36;;;;;;;3.38;3.08;;;23.20;99.90;;;;;;6283928;27;88684;-66
2022/09/28 12:29:41;;;;;;;4.47;3.40;;;23.20;99.90;;;;;;6285521;27;89073;-66
2022/09/28 12:32:50;;;;;;;3.08;2.78;;;23.10;99.90;;;;;;6282388;27;88972;-66
2022/09/28 12:36:16;;;;;;;3.10;2.80;;;23.10;99.90;;;;;;6283035;27;92703;-66
2022/09/28 12:39:34;;;;;;;3.58;3.25;;;23.10;99.90;;;;;;6273148;27;89438;-66
2022/09/28 12:42:51;;;;;;;3.40;3.10;;;23.10;99.90;;;;;;6283149;27;89391;-66
2022/09/28 12:46:09;;;;;;;3.15;2.85;;;23.10;99.90;;;;;;6281483;27;89260;-66
2022/09/28 12:49:35;;;;;;;2.85;2.55;;;23.10;99.90;;;;;;6282146;27;89089;-66
2022/09/28 12:52:47;;;;;;;2.90;2.50;;;23.20;99.90;;;;;;6281801;27;89010;-66
2022/09/28 12:55:58;;;;;;;2.95;2.65;;;23.20;99.90;;;;;;6282151;27;89367;-66
2022/09/28 12:59:09;;;;;;;2.70;2.50;;;23.20;99.90;;;;;;6282195;27;88267;-66
2022/09/28 13:02:37;;;;;;;3.67;2.90;;;23.20;99.90;;;;;;6281961;27;89087;-65
2022/09/28 13:05:58;;;;;;;2.78;2.58;;;23.20;99.90;;;;;;6282795;27;87963;-66
2022/09/28 13:09:21;;;;;;;2.97;2.70;;;23.20;99.90;;;;;;6281809;27;90345;-65
2022/09/28 13:12:34;;;;;;;2.75;2.53;;;23.20;99.90;;;;;;6281702;27;89426;-66
2022/09/28 13:15:43;;;;;;;3.08;2.75;;;23.20;99.90;;;;;;6282220;27;89075;-66
2022/09/28 13:18:53;;;;;;;2.50;2.30;;;23.10;99.90;;;;;;6280949;27;89032;-66
2022/09/28 13:22:02;;;;;;;2.95;2.50;;;23.20;99.90;;;;;;6282241;27;88443;-66
2022/09/28 13:25:13;;;;;;;2.83;2.40;;;23.10;99.90;;;;;;6282713;27;89031;-65
2022/09/28 13:28:18;;;;;;;3.35;2.50;;;23.20;99.90;;;;;;6285269;27;88975;-65
2022/09/28 13:31:28;;;;;;;2.50;2.30;;;23.20;99.90;;;;;;6280584;27;88283;-65
2022/09/28 13:34:34;;;;;;;2.60;2.40;;;23.20;99.90;;;;;;6280683;27;89028;-65
2022/09/28 13:37:36;;;;;;;2.58;2.38;;;23.10;99.90;;;;;;6281588;27;89177;-65
2022/09/28 13:41:14;;;;;;;2.40;2.20;;;23.20;99.90;;;;;;6281761;27;88891;-66
2022/09/28 13:44:35;;;;;;;2.90;2.60;;;23.20;99.90;;;;;;6281300;27;89115;-66
2022/09/28 13:47:57;;;;;;;2.45;2.25;;;23.20;99.90;;;;;;6280988;27;89322;-66
2022/09/28 13:51:18;;;;;;;2.55;2.35;;;23.20;99.90;;;;;;6281631;27;89544;-66
2022/09/28 13:54:30;;;;;;;2.60;2.40;;;23.10;99.90;;;;;;6281083;27;89021;-66
2022/09/28 13:57:41;;;;;;;2.40;2.20;;;23.20;99.90;;;;;;6280255;27;87973;-65
2022/09/28 14:00:50;;;;;;;2.42;2.22;;;23.10;99.90;;;;;;6280989;27;89138;-65
2022/09/28 14:03:56;;;;;;;2.53;2.22;;;23.10;99.90;;;;;;6282103;27;86964;-65
2022/09/28 14:07:10;;;;;;;2.55;2.20;;;23.10;99.90;;;;;;6281522;27;89759;-66
2022/09/28 14:10:19;;;;;;;2.13;1.92;;;23.20;99.90;;;;;;6268004;27;89292;-65
2022/09/28 14:14:00;;;;;;;2.22;2.03;;;23.20;99.90;;;;;;6280105;27;90517;-66
2022/09/28 14:17:53;;;;;;;2.10;1.90;;;23.10;99.90;;;;;;6280141;27;89326;-65
2022/09/28 14:21:19;;;;;;;2.72;2.30;;;23.10;99.90;;;;;;6243889;27;89373;-65
2022/09/28 14:24:43;;;;;;;2.45;2.10;;;23.20;99.90;;;;;;6265471;27;89067;-66
2022/09/28 14:28:07;;;;;;;2.47;2.28;;;23.20;99.90;;;;;;6275598;27;88033;-65
2022/09/28 14:31:21;;;;;;;2.28;2.08;;;23.10;99.90;;;;;;6273545;27;88980;-65
2022/09/28 14:34:34;;;;;;;2.03;1.83;;;23.10;99.90;;;;;;6280919;27;89694;-66
2022/09/28 14:41:16;;;;;;;2.05;1.92;;;23.10;99.90;;;;;;6267585;27;87663;-66
2022/09/28 14:44:18;;;;;;;2.65;2.10;;;23.20;99.90;;;;;;6280207;27;88917;-66
2022/09/28 14:47:35;;;;;;;1.75;1.65;;;23.20;99.90;;;;;;6277672;27;90165;-66
2022/09/28 14:50:37;;;;;;;2.00;1.80;;;23.20;99.90;;;;;;6279732;27;88905;-66
2022/09/28 14:53:39;;;;;;;2.22;2.03;;;23.10;99.90;;;;;;6284950;27;89029;-66
2022/09/28 14:56:45;;;;;;;2.22;2.03;;;23.10;99.90;;;;;;6283335;27;89021;-66
2022/09/28 14:59:47;;;;;;;2.13;1.90;;;23.10;99.90;;;;;;6284675;27;89117;-66
2022/09/28 15:02:53;;;;;;;2.15;1.95;;;23.20;99.90;;;;;;6284808;27;89166;-65
2022/09/28 15:05:56;;;;;;;1.95;1.75;;;23.20;99.90;;;;;;6285199;27;87944;-66
2022/09/28 15:08:58;;;;;;;3.25;2.00;;;23.10;99.90;;;;;;6286628;27;88304;-65
2022/09/28 15:12:01;;;;;;;3.65;2.13;;;23.20;99.90;;;;;;6283720;27;89143;-65
2022/09/28 15:15:07;;;;;;;5.20;2.17;;;23.20;99.90;;;;;;6299080;27;89292;-65
2022/09/28 15:18:41;;;;;;;4.85;1.80;;;23.20;99.90;;;;;;6282752;27;89690;-65
2022/09/28 15:21:46;;;;;;;2.65;1.75;;;23.20;99.90;;;;;;6284134;27;89037;-65
2022/09/28 15:24:55;;;;;;;3.75;2.00;;;23.20;99.90;;;;;;6281760;27;89038;-65
2022/09/28 15:28:01;;;;;;;2.20;2.00;;;23.30;99.90;;;;;;6280031;27;89120;-65
2022/09/28 15:31:04;;;;;;;4.00;1.98;;;23.30;99.90;;;;;;6286583;27;89400;-65
2022/09/28 15:37:45;;;;;;;2.85;1.90;;;23.30;99.90;;;;;;6280281;27;87082;-64
2022/09/28 15:40:47;;;;;;;2.90;1.70;;;23.30;99.90;;;;;;6286953;27;88425;-64
2022/09/28 15:44:07;;;;;;;2.92;1.95;;;23.30;99.90;;;;;;6285758;27;88981;-65
2022/09/28 15:47:15;;;;;;;3.90;2.05;;;23.30;99.90;;;;;;6282441;27;89038;-65
2022/09/28 15:50:24;;;;;;;3.53;1.85;;;23.20;99.90;;;;;;6281129;27;90043;-65
2022/09/28 15:53:26;;;;;;;3.00;1.95;;;23.30;99.90;;;;;;6281534;27;89274;-64
2022/09/28 15:56:29;;;;;;;3.25;1.98;;;23.30;99.90;;;;;;6282746;27;88142;-64
2022/09/28 15:59:33;;;;;;;2.30;2.10;;;23.30;99.90;;;;;;6280912;27;87797;-65
2022/09/28 16:02:36;;;;;;;2.40;2.15;;;23.30;99.90;;;;;;6282903;27;89179;-65
2022/09/28 16:05:45;;;;;;;2.75;2.22;;;23.30;99.90;;;;;;6282091;27;89047;-65
2022/09/28 16:08:48;;;;;;;4.53;2.30;;;23.30;99.90;;;;;;6281894;27;88993;-65
2022/09/28 16:11:50;;;;;;;3.45;2.13;;;23.30;99.90;;;;;;6282229;27;88172;-65
2022/09/28 16:14:55;;;;;;;2.28;2.00;;;23.30;99.90;;;;;;6281132;27;89491;-65
2022/09/28 16:18:00;;;;;;;2.90;2.08;;;23.30;99.90;;;;;;6272789;27;89101;-65
2022/09/28 16:21:35;;;;;;;2.97;2.20;;;23.30;99.90;;;;;;6281053;27;89976;-65
2022/09/28 16:24:39;;;;;;;2.22;1.92;;;23.30;99.90;;;;;;6274218;27;89796;-65
2022/09/28 16:27:43;;;;;;;2.33;1.83;;;23.30;99.90;;;;;;6284022;27;88275;-65
2022/09/28 16:31:00;;;;;;;2.38;2.05;;;23.30;99.90;;;;;;6280641;27;89166;-65
2022/09/28 16:34:18;;;;;;;4.07;2.00;;;23.30;99.90;;;;;;6281952;27;89167;-65